<?xml version="1.0" encoding="UTF-8" standalone="no" ?>
<gpx xmlns="http://www.topografix.com/GPX/1/1" xmlns:xsi="http://www.w3.org/2001/XMLSchema-instance" xsi:schemaLocation="http://www.topografix.com/GPX/1/1 http://www.topografix.com/GPX/1/1/gpx.xsd" version="1.1" creator="VisuGPX - https://www.visugpx.com">
  <metadata>
    <name>L'Usclade</name>
    <desc><![CDATA[Parcours créé sur Trace de Trail]]></desc>
  </metadata>
  <trk>
    <name><![CDATA[L'Usclade sur TraceDeTrail.fr]]></name>
    <extensions>
      <line xmlns="http://www.topografix.com/GPX/gpx_style/0/2">
        <color>0000FF</color>
        <width>4</width>
      </line>
    </extensions>
    <trkseg>
      <trkpt lat="45.06988" lon="2.65708">
        <ele>921</ele>
        <time>2024-08-11T16:47:00+00:00</time>
      </trkpt>
      <trkpt lat="45.07002" lon="2.65729">
        <ele>922</ele>
        <time>2024-08-11T16:47:03+00:00</time>
      </trkpt>
      <trkpt lat="45.06975" lon="2.65756">
        <ele>922</ele>
        <time>2024-08-11T16:47:06+00:00</time>
      </trkpt>
      <trkpt lat="45.06949" lon="2.65776">
        <ele>922</ele>
        <time>2024-08-11T16:47:09+00:00</time>
      </trkpt>
      <trkpt lat="45.06921" lon="2.65758">
        <ele>922</ele>
        <time>2024-08-11T16:47:12+00:00</time>
      </trkpt>
      <trkpt lat="45.06896" lon="2.65741">
        <ele>923</ele>
        <time>2024-08-11T16:47:15+00:00</time>
      </trkpt>
      <trkpt lat="45.06911" lon="2.6577">
        <ele>923</ele>
        <time>2024-08-11T16:47:18+00:00</time>
      </trkpt>
      <trkpt lat="45.06925" lon="2.65814">
        <ele>929</ele>
        <time>2024-08-11T16:47:21+00:00</time>
      </trkpt>
      <trkpt lat="45.06945" lon="2.65858">
        <ele>929</ele>
        <time>2024-08-11T16:47:24+00:00</time>
      </trkpt>
      <trkpt lat="45.0696" lon="2.65903">
        <ele>929</ele>
        <time>2024-08-11T16:47:27+00:00</time>
      </trkpt>
      <trkpt lat="45.0697" lon="2.65954">
        <ele>931</ele>
        <time>2024-08-11T16:47:30+00:00</time>
      </trkpt>
      <trkpt lat="45.06984" lon="2.65991">
        <ele>931</ele>
        <time>2024-08-11T16:47:33+00:00</time>
      </trkpt>
      <trkpt lat="45.07002" lon="2.66041">
        <ele>931</ele>
        <time>2024-08-11T16:47:36+00:00</time>
      </trkpt>
      <trkpt lat="45.0701" lon="2.66083">
        <ele>932</ele>
        <time>2024-08-11T16:47:39+00:00</time>
      </trkpt>
      <trkpt lat="45.07031" lon="2.66101">
        <ele>932</ele>
        <time>2024-08-11T16:47:42+00:00</time>
      </trkpt>
      <trkpt lat="45.07054" lon="2.66128">
        <ele>933</ele>
        <time>2024-08-11T16:47:45+00:00</time>
      </trkpt>
      <trkpt lat="45.0709" lon="2.66174">
        <ele>933</ele>
        <time>2024-08-11T16:47:48+00:00</time>
      </trkpt>
      <trkpt lat="45.07114" lon="2.66192">
        <ele>932</ele>
        <time>2024-08-11T16:47:51+00:00</time>
      </trkpt>
      <trkpt lat="45.0714" lon="2.66213">
        <ele>932</ele>
        <time>2024-08-11T16:47:54+00:00</time>
      </trkpt>
      <trkpt lat="45.07162" lon="2.66235">
        <ele>932</ele>
        <time>2024-08-11T16:47:57+00:00</time>
      </trkpt>
      <trkpt lat="45.07176" lon="2.66253">
        <ele>932</ele>
        <time>2024-08-11T16:48:00+00:00</time>
      </trkpt>
      <trkpt lat="45.07195" lon="2.66274">
        <ele>932</ele>
        <time>2024-08-11T16:48:03+00:00</time>
      </trkpt>
      <trkpt lat="45.07249" lon="2.66328">
        <ele>935</ele>
        <time>2024-08-11T16:48:06+00:00</time>
      </trkpt>
      <trkpt lat="45.07281" lon="2.66357">
        <ele>935</ele>
        <time>2024-08-11T16:48:09+00:00</time>
      </trkpt>
      <trkpt lat="45.07303" lon="2.66375">
        <ele>936</ele>
        <time>2024-08-11T16:48:12+00:00</time>
      </trkpt>
      <trkpt lat="45.07326" lon="2.66392">
        <ele>936</ele>
        <time>2024-08-11T16:48:15+00:00</time>
      </trkpt>
      <trkpt lat="45.07341" lon="2.66409">
        <ele>936</ele>
        <time>2024-08-11T16:48:18+00:00</time>
      </trkpt>
      <trkpt lat="45.07367" lon="2.66439">
        <ele>937</ele>
        <time>2024-08-11T16:48:21+00:00</time>
      </trkpt>
      <trkpt lat="45.07389" lon="2.66456">
        <ele>938</ele>
        <time>2024-08-11T16:48:24+00:00</time>
      </trkpt>
      <trkpt lat="45.07415" lon="2.66478">
        <ele>939</ele>
        <time>2024-08-11T16:48:27+00:00</time>
      </trkpt>
      <trkpt lat="45.07452" lon="2.66504">
        <ele>939</ele>
        <time>2024-08-11T16:48:30+00:00</time>
      </trkpt>
      <trkpt lat="45.0747" lon="2.66513">
        <ele>939</ele>
        <time>2024-08-11T16:48:33+00:00</time>
      </trkpt>
      <trkpt lat="45.07501" lon="2.66547">
        <ele>938</ele>
        <time>2024-08-11T16:48:36+00:00</time>
      </trkpt>
      <trkpt lat="45.07522" lon="2.66568">
        <ele>938</ele>
        <time>2024-08-11T16:48:39+00:00</time>
      </trkpt>
      <trkpt lat="45.07534" lon="2.66592">
        <ele>941</ele>
        <time>2024-08-11T16:48:42+00:00</time>
      </trkpt>
      <trkpt lat="45.07543" lon="2.66625">
        <ele>942</ele>
        <time>2024-08-11T16:48:45+00:00</time>
      </trkpt>
      <trkpt lat="45.07557" lon="2.66654">
        <ele>943</ele>
        <time>2024-08-11T16:48:48+00:00</time>
      </trkpt>
      <trkpt lat="45.07573" lon="2.66688">
        <ele>943</ele>
        <time>2024-08-11T16:48:51+00:00</time>
      </trkpt>
      <trkpt lat="45.07585" lon="2.66723">
        <ele>943</ele>
        <time>2024-08-11T16:48:54+00:00</time>
      </trkpt>
      <trkpt lat="45.07609" lon="2.66744">
        <ele>944</ele>
        <time>2024-08-11T16:48:57+00:00</time>
      </trkpt>
      <trkpt lat="45.07651" lon="2.66768">
        <ele>945</ele>
        <time>2024-08-11T16:49:00+00:00</time>
      </trkpt>
      <trkpt lat="45.0767" lon="2.66783">
        <ele>949</ele>
        <time>2024-08-11T16:49:03+00:00</time>
      </trkpt>
      <trkpt lat="45.07688" lon="2.66807">
        <ele>953</ele>
        <time>2024-08-11T16:49:06+00:00</time>
      </trkpt>
      <trkpt lat="45.07676" lon="2.66841">
        <ele>960</ele>
        <time>2024-08-11T16:49:09+00:00</time>
      </trkpt>
      <trkpt lat="45.07698" lon="2.66842">
        <ele>964</ele>
        <time>2024-08-11T16:49:12+00:00</time>
      </trkpt>
      <trkpt lat="45.07725" lon="2.66844">
        <ele>969</ele>
        <time>2024-08-11T16:49:15+00:00</time>
      </trkpt>
      <trkpt lat="45.07746" lon="2.66859">
        <ele>974</ele>
        <time>2024-08-11T16:49:18+00:00</time>
      </trkpt>
      <trkpt lat="45.07756" lon="2.66891">
        <ele>980</ele>
        <time>2024-08-11T16:49:21+00:00</time>
      </trkpt>
      <trkpt lat="45.07776" lon="2.66922">
        <ele>980</ele>
        <time>2024-08-11T16:49:24+00:00</time>
      </trkpt>
      <trkpt lat="45.07807" lon="2.66927">
        <ele>980</ele>
        <time>2024-08-11T16:49:27+00:00</time>
      </trkpt>
      <trkpt lat="45.07832" lon="2.66928">
        <ele>980</ele>
        <time>2024-08-11T16:49:30+00:00</time>
      </trkpt>
      <trkpt lat="45.07858" lon="2.66986">
        <ele>980</ele>
        <time>2024-08-11T16:49:33+00:00</time>
      </trkpt>
      <trkpt lat="45.0788" lon="2.67037">
        <ele>981</ele>
        <time>2024-08-11T16:49:36+00:00</time>
      </trkpt>
      <trkpt lat="45.07878" lon="2.67064">
        <ele>983</ele>
        <time>2024-08-11T16:49:39+00:00</time>
      </trkpt>
      <trkpt lat="45.07895" lon="2.67103">
        <ele>984</ele>
        <time>2024-08-11T16:49:42+00:00</time>
      </trkpt>
      <trkpt lat="45.07906" lon="2.67148">
        <ele>987</ele>
        <time>2024-08-11T16:49:45+00:00</time>
      </trkpt>
      <trkpt lat="45.07922" lon="2.67188">
        <ele>987</ele>
        <time>2024-08-11T16:49:48+00:00</time>
      </trkpt>
      <trkpt lat="45.07937" lon="2.67225">
        <ele>988</ele>
        <time>2024-08-11T16:49:51+00:00</time>
      </trkpt>
      <trkpt lat="45.0795" lon="2.67259">
        <ele>990</ele>
        <time>2024-08-11T16:49:54+00:00</time>
      </trkpt>
      <trkpt lat="45.07964" lon="2.67287">
        <ele>993</ele>
        <time>2024-08-11T16:49:57+00:00</time>
      </trkpt>
      <trkpt lat="45.0798" lon="2.67316">
        <ele>998</ele>
        <time>2024-08-11T16:50:00+00:00</time>
      </trkpt>
      <trkpt lat="45.08014" lon="2.67347">
        <ele>999</ele>
        <time>2024-08-11T16:50:03+00:00</time>
      </trkpt>
      <trkpt lat="45.08043" lon="2.67369">
        <ele>999</ele>
        <time>2024-08-11T16:50:06+00:00</time>
      </trkpt>
      <trkpt lat="45.08056" lon="2.67393">
        <ele>1000</ele>
        <time>2024-08-11T16:50:09+00:00</time>
      </trkpt>
      <trkpt lat="45.08084" lon="2.67415">
        <ele>1001</ele>
        <time>2024-08-11T16:50:12+00:00</time>
      </trkpt>
      <trkpt lat="45.08115" lon="2.67443">
        <ele>1001</ele>
        <time>2024-08-11T16:50:15+00:00</time>
      </trkpt>
      <trkpt lat="45.08137" lon="2.67458">
        <ele>1000</ele>
        <time>2024-08-11T16:50:18+00:00</time>
      </trkpt>
      <trkpt lat="45.08177" lon="2.67483">
        <ele>997</ele>
        <time>2024-08-11T16:50:21+00:00</time>
      </trkpt>
      <trkpt lat="45.08195" lon="2.67509">
        <ele>997</ele>
        <time>2024-08-11T16:50:24+00:00</time>
      </trkpt>
      <trkpt lat="45.08214" lon="2.67521">
        <ele>997</ele>
        <time>2024-08-11T16:50:27+00:00</time>
      </trkpt>
      <trkpt lat="45.08243" lon="2.67551">
        <ele>997</ele>
        <time>2024-08-11T16:50:30+00:00</time>
      </trkpt>
      <trkpt lat="45.08267" lon="2.67582">
        <ele>997</ele>
        <time>2024-08-11T16:50:33+00:00</time>
      </trkpt>
      <trkpt lat="45.08303" lon="2.67604">
        <ele>999</ele>
        <time>2024-08-11T16:50:36+00:00</time>
      </trkpt>
      <trkpt lat="45.08326" lon="2.67615">
        <ele>1000</ele>
        <time>2024-08-11T16:50:39+00:00</time>
      </trkpt>
      <trkpt lat="45.08353" lon="2.67641">
        <ele>1003</ele>
        <time>2024-08-11T16:50:42+00:00</time>
      </trkpt>
      <trkpt lat="45.08377" lon="2.67682">
        <ele>1003</ele>
        <time>2024-08-11T16:50:45+00:00</time>
      </trkpt>
      <trkpt lat="45.08394" lon="2.67701">
        <ele>1005</ele>
        <time>2024-08-11T16:50:48+00:00</time>
      </trkpt>
      <trkpt lat="45.08411" lon="2.67721">
        <ele>1007</ele>
        <time>2024-08-11T16:50:51+00:00</time>
      </trkpt>
      <trkpt lat="45.08423" lon="2.6778">
        <ele>1009</ele>
        <time>2024-08-11T16:50:54+00:00</time>
      </trkpt>
      <trkpt lat="45.08435" lon="2.6782">
        <ele>1012</ele>
        <time>2024-08-11T16:50:57+00:00</time>
      </trkpt>
      <trkpt lat="45.08438" lon="2.67848">
        <ele>1021</ele>
        <time>2024-08-11T16:51:00+00:00</time>
      </trkpt>
      <trkpt lat="45.0847" lon="2.67879">
        <ele>1022</ele>
        <time>2024-08-11T16:51:03+00:00</time>
      </trkpt>
      <trkpt lat="45.08489" lon="2.67902">
        <ele>1025</ele>
        <time>2024-08-11T16:51:06+00:00</time>
      </trkpt>
      <trkpt lat="45.08508" lon="2.67921">
        <ele>1026</ele>
        <time>2024-08-11T16:51:09+00:00</time>
      </trkpt>
      <trkpt lat="45.08522" lon="2.67946">
        <ele>1030</ele>
        <time>2024-08-11T16:51:12+00:00</time>
      </trkpt>
      <trkpt lat="45.08538" lon="2.67992">
        <ele>1031</ele>
        <time>2024-08-11T16:51:15+00:00</time>
      </trkpt>
      <trkpt lat="45.0855" lon="2.68029">
        <ele>1032</ele>
        <time>2024-08-11T16:51:18+00:00</time>
      </trkpt>
      <trkpt lat="45.08555" lon="2.68073">
        <ele>1032</ele>
        <time>2024-08-11T16:51:21+00:00</time>
      </trkpt>
      <trkpt lat="45.08563" lon="2.68107">
        <ele>1032</ele>
        <time>2024-08-11T16:51:24+00:00</time>
      </trkpt>
      <trkpt lat="45.08586" lon="2.68138">
        <ele>1032</ele>
        <time>2024-08-11T16:51:27+00:00</time>
      </trkpt>
      <trkpt lat="45.08608" lon="2.68155">
        <ele>1034</ele>
        <time>2024-08-11T16:51:30+00:00</time>
      </trkpt>
      <trkpt lat="45.08625" lon="2.68183">
        <ele>1037</ele>
        <time>2024-08-11T16:51:33+00:00</time>
      </trkpt>
      <trkpt lat="45.08642" lon="2.6823">
        <ele>1040</ele>
        <time>2024-08-11T16:51:36+00:00</time>
      </trkpt>
      <trkpt lat="45.08647" lon="2.68267">
        <ele>1046</ele>
        <time>2024-08-11T16:51:39+00:00</time>
      </trkpt>
      <trkpt lat="45.0865" lon="2.68309">
        <ele>1050</ele>
        <time>2024-08-11T16:51:42+00:00</time>
      </trkpt>
      <trkpt lat="45.08652" lon="2.68362">
        <ele>1053</ele>
        <time>2024-08-11T16:51:45+00:00</time>
      </trkpt>
      <trkpt lat="45.08652" lon="2.68404">
        <ele>1056</ele>
        <time>2024-08-11T16:51:48+00:00</time>
      </trkpt>
      <trkpt lat="45.0865" lon="2.68449">
        <ele>1058</ele>
        <time>2024-08-11T16:51:51+00:00</time>
      </trkpt>
      <trkpt lat="45.08649" lon="2.68489">
        <ele>1064</ele>
        <time>2024-08-11T16:51:54+00:00</time>
      </trkpt>
      <trkpt lat="45.0865" lon="2.68525">
        <ele>1065</ele>
        <time>2024-08-11T16:51:57+00:00</time>
      </trkpt>
      <trkpt lat="45.08652" lon="2.6857">
        <ele>1068</ele>
        <time>2024-08-11T16:52:00+00:00</time>
      </trkpt>
      <trkpt lat="45.08647" lon="2.68612">
        <ele>1070</ele>
        <time>2024-08-11T16:52:03+00:00</time>
      </trkpt>
      <trkpt lat="45.08633" lon="2.68641">
        <ele>1074</ele>
        <time>2024-08-11T16:52:06+00:00</time>
      </trkpt>
      <trkpt lat="45.08616" lon="2.68606">
        <ele>1077</ele>
        <time>2024-08-11T16:52:09+00:00</time>
      </trkpt>
      <trkpt lat="45.08601" lon="2.68575">
        <ele>1079</ele>
        <time>2024-08-11T16:52:12+00:00</time>
      </trkpt>
      <trkpt lat="45.08593" lon="2.68541">
        <ele>1082</ele>
        <time>2024-08-11T16:52:15+00:00</time>
      </trkpt>
      <trkpt lat="45.08589" lon="2.68505">
        <ele>1086</ele>
        <time>2024-08-11T16:52:18+00:00</time>
      </trkpt>
      <trkpt lat="45.08584" lon="2.68473">
        <ele>1086</ele>
        <time>2024-08-11T16:52:21+00:00</time>
      </trkpt>
      <trkpt lat="45.08585" lon="2.68436">
        <ele>1089</ele>
        <time>2024-08-11T16:52:24+00:00</time>
      </trkpt>
      <trkpt lat="45.08575" lon="2.68395">
        <ele>1093</ele>
        <time>2024-08-11T16:52:27+00:00</time>
      </trkpt>
      <trkpt lat="45.08564" lon="2.68352">
        <ele>1095</ele>
        <time>2024-08-11T16:52:30+00:00</time>
      </trkpt>
      <trkpt lat="45.08546" lon="2.68329">
        <ele>1098</ele>
        <time>2024-08-11T16:52:33+00:00</time>
      </trkpt>
      <trkpt lat="45.08508" lon="2.68293">
        <ele>1106</ele>
        <time>2024-08-11T16:52:36+00:00</time>
      </trkpt>
      <trkpt lat="45.08477" lon="2.68256">
        <ele>1108</ele>
        <time>2024-08-11T16:52:39+00:00</time>
      </trkpt>
      <trkpt lat="45.08448" lon="2.68228">
        <ele>1115</ele>
        <time>2024-08-11T16:52:42+00:00</time>
      </trkpt>
      <trkpt lat="45.08441" lon="2.68255">
        <ele>1122</ele>
        <time>2024-08-11T16:52:45+00:00</time>
      </trkpt>
      <trkpt lat="45.08434" lon="2.6829">
        <ele>1137</ele>
        <time>2024-08-11T16:52:48+00:00</time>
      </trkpt>
      <trkpt lat="45.08436" lon="2.68334">
        <ele>1147</ele>
        <time>2024-08-11T16:52:51+00:00</time>
      </trkpt>
      <trkpt lat="45.0844" lon="2.68371">
        <ele>1150</ele>
        <time>2024-08-11T16:52:54+00:00</time>
      </trkpt>
      <trkpt lat="45.08449" lon="2.68413">
        <ele>1156</ele>
        <time>2024-08-11T16:52:57+00:00</time>
      </trkpt>
      <trkpt lat="45.08448" lon="2.68447">
        <ele>1160</ele>
        <time>2024-08-11T16:53:00+00:00</time>
      </trkpt>
      <trkpt lat="45.0844" lon="2.68484">
        <ele>1162</ele>
        <time>2024-08-11T16:53:03+00:00</time>
      </trkpt>
      <trkpt lat="45.08432" lon="2.68517">
        <ele>1162</ele>
        <time>2024-08-11T16:53:06+00:00</time>
      </trkpt>
      <trkpt lat="45.08424" lon="2.68552">
        <ele>1164</ele>
        <time>2024-08-11T16:53:09+00:00</time>
      </trkpt>
      <trkpt lat="45.08423" lon="2.68603">
        <ele>1168</ele>
        <time>2024-08-11T16:53:12+00:00</time>
      </trkpt>
      <trkpt lat="45.08413" lon="2.68638">
        <ele>1170</ele>
        <time>2024-08-11T16:53:15+00:00</time>
      </trkpt>
      <trkpt lat="45.08399" lon="2.68694">
        <ele>1179</ele>
        <time>2024-08-11T16:53:18+00:00</time>
      </trkpt>
      <trkpt lat="45.0838" lon="2.68726">
        <ele>1179</ele>
        <time>2024-08-11T16:53:21+00:00</time>
      </trkpt>
      <trkpt lat="45.08368" lon="2.68748">
        <ele>1179</ele>
        <time>2024-08-11T16:53:24+00:00</time>
      </trkpt>
      <trkpt lat="45.08355" lon="2.6877">
        <ele>1182</ele>
        <time>2024-08-11T16:53:27+00:00</time>
      </trkpt>
      <trkpt lat="45.0834" lon="2.688">
        <ele>1183</ele>
        <time>2024-08-11T16:53:30+00:00</time>
      </trkpt>
      <trkpt lat="45.08324" lon="2.68845">
        <ele>1187</ele>
        <time>2024-08-11T16:53:33+00:00</time>
      </trkpt>
      <trkpt lat="45.08319" lon="2.68891">
        <ele>1188</ele>
        <time>2024-08-11T16:53:36+00:00</time>
      </trkpt>
      <trkpt lat="45.08316" lon="2.68919">
        <ele>1190</ele>
        <time>2024-08-11T16:53:39+00:00</time>
      </trkpt>
      <trkpt lat="45.08325" lon="2.68956">
        <ele>1191</ele>
        <time>2024-08-11T16:53:42+00:00</time>
      </trkpt>
      <trkpt lat="45.08328" lon="2.69002">
        <ele>1193</ele>
        <time>2024-08-11T16:53:45+00:00</time>
      </trkpt>
      <trkpt lat="45.08356" lon="2.69034">
        <ele>1205</ele>
        <time>2024-08-11T16:53:48+00:00</time>
      </trkpt>
      <trkpt lat="45.08377" lon="2.6907">
        <ele>1215</ele>
        <time>2024-08-11T16:53:51+00:00</time>
      </trkpt>
      <trkpt lat="45.08395" lon="2.69102">
        <ele>1215</ele>
        <time>2024-08-11T16:53:54+00:00</time>
      </trkpt>
      <trkpt lat="45.08393" lon="2.69164">
        <ele>1215</ele>
        <time>2024-08-11T16:53:57+00:00</time>
      </trkpt>
      <trkpt lat="45.08377" lon="2.69197">
        <ele>1215</ele>
        <time>2024-08-11T16:54:00+00:00</time>
      </trkpt>
      <trkpt lat="45.08365" lon="2.69228">
        <ele>1218</ele>
        <time>2024-08-11T16:54:03+00:00</time>
      </trkpt>
      <trkpt lat="45.08337" lon="2.69253">
        <ele>1224</ele>
        <time>2024-08-11T16:54:06+00:00</time>
      </trkpt>
      <trkpt lat="45.08309" lon="2.69277">
        <ele>1229</ele>
        <time>2024-08-11T16:54:09+00:00</time>
      </trkpt>
      <trkpt lat="45.08272" lon="2.69296">
        <ele>1234</ele>
        <time>2024-08-11T16:54:12+00:00</time>
      </trkpt>
      <trkpt lat="45.08251" lon="2.69307">
        <ele>1238</ele>
        <time>2024-08-11T16:54:15+00:00</time>
      </trkpt>
      <trkpt lat="45.08225" lon="2.69341">
        <ele>1244</ele>
        <time>2024-08-11T16:54:18+00:00</time>
      </trkpt>
      <trkpt lat="45.08201" lon="2.69374">
        <ele>1249</ele>
        <time>2024-08-11T16:54:21+00:00</time>
      </trkpt>
      <trkpt lat="45.08185" lon="2.69398">
        <ele>1251</ele>
        <time>2024-08-11T16:54:24+00:00</time>
      </trkpt>
      <trkpt lat="45.0816" lon="2.69431">
        <ele>1259</ele>
        <time>2024-08-11T16:54:27+00:00</time>
      </trkpt>
      <trkpt lat="45.08136" lon="2.69472">
        <ele>1268</ele>
        <time>2024-08-11T16:54:30+00:00</time>
      </trkpt>
      <trkpt lat="45.08123" lon="2.69495">
        <ele>1270</ele>
        <time>2024-08-11T16:54:33+00:00</time>
      </trkpt>
      <trkpt lat="45.08105" lon="2.69543">
        <ele>1273</ele>
        <time>2024-08-11T16:54:36+00:00</time>
      </trkpt>
      <trkpt lat="45.08086" lon="2.69586">
        <ele>1276</ele>
        <time>2024-08-11T16:54:39+00:00</time>
      </trkpt>
      <trkpt lat="45.08076" lon="2.69638">
        <ele>1283</ele>
        <time>2024-08-11T16:54:42+00:00</time>
      </trkpt>
      <trkpt lat="45.08064" lon="2.69683">
        <ele>1293</ele>
        <time>2024-08-11T16:54:45+00:00</time>
      </trkpt>
      <trkpt lat="45.08056" lon="2.69725">
        <ele>1296</ele>
        <time>2024-08-11T16:54:48+00:00</time>
      </trkpt>
      <trkpt lat="45.08051" lon="2.69779">
        <ele>1305</ele>
        <time>2024-08-11T16:54:51+00:00</time>
      </trkpt>
      <trkpt lat="45.08054" lon="2.69814">
        <ele>1312</ele>
        <time>2024-08-11T16:54:54+00:00</time>
      </trkpt>
      <trkpt lat="45.08054" lon="2.69879">
        <ele>1322</ele>
        <time>2024-08-11T16:54:57+00:00</time>
      </trkpt>
      <trkpt lat="45.08039" lon="2.69898">
        <ele>1325</ele>
        <time>2024-08-11T16:55:00+00:00</time>
      </trkpt>
      <trkpt lat="45.0801" lon="2.6992">
        <ele>1330</ele>
        <time>2024-08-11T16:55:03+00:00</time>
      </trkpt>
      <trkpt lat="45.07988" lon="2.69933">
        <ele>1335</ele>
        <time>2024-08-11T16:55:06+00:00</time>
      </trkpt>
      <trkpt lat="45.07956" lon="2.69956">
        <ele>1339</ele>
        <time>2024-08-11T16:55:09+00:00</time>
      </trkpt>
      <trkpt lat="45.07956" lon="2.69985">
        <ele>1347</ele>
        <time>2024-08-11T16:55:12+00:00</time>
      </trkpt>
      <trkpt lat="45.07983" lon="2.70016">
        <ele>1358</ele>
        <time>2024-08-11T16:55:15+00:00</time>
      </trkpt>
      <trkpt lat="45.07998" lon="2.70041">
        <ele>1366</ele>
        <time>2024-08-11T16:55:18+00:00</time>
      </trkpt>
      <trkpt lat="45.08016" lon="2.70052">
        <ele>1373</ele>
        <time>2024-08-11T16:55:21+00:00</time>
      </trkpt>
      <trkpt lat="45.08045" lon="2.7007">
        <ele>1378</ele>
        <time>2024-08-11T16:55:24+00:00</time>
      </trkpt>
      <trkpt lat="45.08075" lon="2.70087">
        <ele>1387</ele>
        <time>2024-08-11T16:55:27+00:00</time>
      </trkpt>
      <trkpt lat="45.08103" lon="2.70105">
        <ele>1392</ele>
        <time>2024-08-11T16:55:30+00:00</time>
      </trkpt>
      <trkpt lat="45.0813" lon="2.70117">
        <ele>1398</ele>
        <time>2024-08-11T16:55:33+00:00</time>
      </trkpt>
      <trkpt lat="45.08154" lon="2.70118">
        <ele>1403</ele>
        <time>2024-08-11T16:55:36+00:00</time>
      </trkpt>
      <trkpt lat="45.08168" lon="2.70155">
        <ele>1417</ele>
        <time>2024-08-11T16:55:39+00:00</time>
      </trkpt>
      <trkpt lat="45.08181" lon="2.70196">
        <ele>1431</ele>
        <time>2024-08-11T16:55:42+00:00</time>
      </trkpt>
      <trkpt lat="45.08183" lon="2.70226">
        <ele>1438</ele>
        <time>2024-08-11T16:55:45+00:00</time>
      </trkpt>
      <trkpt lat="45.08205" lon="2.70259">
        <ele>1446</ele>
        <time>2024-08-11T16:55:48+00:00</time>
      </trkpt>
      <trkpt lat="45.08232" lon="2.70289">
        <ele>1455</ele>
        <time>2024-08-11T16:55:51+00:00</time>
      </trkpt>
      <trkpt lat="45.08255" lon="2.70323">
        <ele>1465</ele>
        <time>2024-08-11T16:55:54+00:00</time>
      </trkpt>
      <trkpt lat="45.08268" lon="2.70369">
        <ele>1473</ele>
        <time>2024-08-11T16:55:57+00:00</time>
      </trkpt>
      <trkpt lat="45.08278" lon="2.70413">
        <ele>1482</ele>
        <time>2024-08-11T16:56:00+00:00</time>
      </trkpt>
      <trkpt lat="45.083" lon="2.70481">
        <ele>1493</ele>
        <time>2024-08-11T16:56:03+00:00</time>
      </trkpt>
      <trkpt lat="45.08299" lon="2.70529">
        <ele>1501</ele>
        <time>2024-08-11T16:56:06+00:00</time>
      </trkpt>
      <trkpt lat="45.08299" lon="2.70581">
        <ele>1512</ele>
        <time>2024-08-11T16:56:09+00:00</time>
      </trkpt>
      <trkpt lat="45.08296" lon="2.7063">
        <ele>1517</ele>
        <time>2024-08-11T16:56:12+00:00</time>
      </trkpt>
      <trkpt lat="45.08283" lon="2.70658">
        <ele>1523</ele>
        <time>2024-08-11T16:56:15+00:00</time>
      </trkpt>
      <trkpt lat="45.08294" lon="2.70697">
        <ele>1530</ele>
        <time>2024-08-11T16:56:18+00:00</time>
      </trkpt>
      <trkpt lat="45.08281" lon="2.70745">
        <ele>1537</ele>
        <time>2024-08-11T16:56:21+00:00</time>
      </trkpt>
      <trkpt lat="45.08265" lon="2.70789">
        <ele>1546</ele>
        <time>2024-08-11T16:56:24+00:00</time>
      </trkpt>
      <trkpt lat="45.08249" lon="2.70857">
        <ele>1559</ele>
        <time>2024-08-11T16:56:27+00:00</time>
      </trkpt>
      <trkpt lat="45.08255" lon="2.70903">
        <ele>1560</ele>
        <time>2024-08-11T16:56:30+00:00</time>
      </trkpt>
      <trkpt lat="45.08261" lon="2.70929">
        <ele>1560</ele>
        <time>2024-08-11T16:56:33+00:00</time>
      </trkpt>
      <trkpt lat="45.08246" lon="2.70927">
        <ele>1565</ele>
        <time>2024-08-11T16:56:36+00:00</time>
      </trkpt>
      <trkpt lat="45.08232" lon="2.70905">
        <ele>1568</ele>
        <time>2024-08-11T16:56:39+00:00</time>
      </trkpt>
      <trkpt lat="45.08204" lon="2.70877">
        <ele>1575</ele>
        <time>2024-08-11T16:56:42+00:00</time>
      </trkpt>
      <trkpt lat="45.08174" lon="2.70846">
        <ele>1582</ele>
        <time>2024-08-11T16:56:45+00:00</time>
      </trkpt>
      <trkpt lat="45.08154" lon="2.70831">
        <ele>1582</ele>
        <time>2024-08-11T16:56:48+00:00</time>
      </trkpt>
      <trkpt lat="45.08174" lon="2.70845">
        <ele>1582</ele>
        <time>2024-08-11T16:56:51+00:00</time>
      </trkpt>
      <trkpt lat="45.08193" lon="2.70859">
        <ele>1576</ele>
        <time>2024-08-11T16:56:54+00:00</time>
      </trkpt>
      <trkpt lat="45.08211" lon="2.70875">
        <ele>1571</ele>
        <time>2024-08-11T16:56:57+00:00</time>
      </trkpt>
      <trkpt lat="45.08229" lon="2.70892">
        <ele>1570</ele>
        <time>2024-08-11T16:57:00+00:00</time>
      </trkpt>
      <trkpt lat="45.08244" lon="2.70921">
        <ele>1565</ele>
        <time>2024-08-11T16:57:03+00:00</time>
      </trkpt>
      <trkpt lat="45.08261" lon="2.70939">
        <ele>1561</ele>
        <time>2024-08-11T16:57:06+00:00</time>
      </trkpt>
      <trkpt lat="45.08251" lon="2.70879">
        <ele>1558</ele>
        <time>2024-08-11T16:57:09+00:00</time>
      </trkpt>
      <trkpt lat="45.08258" lon="2.70825">
        <ele>1553</ele>
        <time>2024-08-11T16:57:12+00:00</time>
      </trkpt>
      <trkpt lat="45.08266" lon="2.70765">
        <ele>1546</ele>
        <time>2024-08-11T16:57:15+00:00</time>
      </trkpt>
      <trkpt lat="45.08287" lon="2.7073">
        <ele>1534</ele>
        <time>2024-08-11T16:57:18+00:00</time>
      </trkpt>
      <trkpt lat="45.08295" lon="2.70695">
        <ele>1530</ele>
        <time>2024-08-11T16:57:21+00:00</time>
      </trkpt>
      <trkpt lat="45.08291" lon="2.70663">
        <ele>1523</ele>
        <time>2024-08-11T16:57:24+00:00</time>
      </trkpt>
      <trkpt lat="45.08292" lon="2.70639">
        <ele>1517</ele>
        <time>2024-08-11T16:57:27+00:00</time>
      </trkpt>
      <trkpt lat="45.08298" lon="2.70605">
        <ele>1514</ele>
        <time>2024-08-11T16:57:30+00:00</time>
      </trkpt>
      <trkpt lat="45.08301" lon="2.70573">
        <ele>1506</ele>
        <time>2024-08-11T16:57:33+00:00</time>
      </trkpt>
      <trkpt lat="45.08302" lon="2.70525">
        <ele>1498</ele>
        <time>2024-08-11T16:57:36+00:00</time>
      </trkpt>
      <trkpt lat="45.08302" lon="2.70494">
        <ele>1492</ele>
        <time>2024-08-11T16:57:39+00:00</time>
      </trkpt>
      <trkpt lat="45.08294" lon="2.70462">
        <ele>1489</ele>
        <time>2024-08-11T16:57:42+00:00</time>
      </trkpt>
      <trkpt lat="45.08283" lon="2.70435">
        <ele>1484</ele>
        <time>2024-08-11T16:57:45+00:00</time>
      </trkpt>
      <trkpt lat="45.08263" lon="2.70365">
        <ele>1473</ele>
        <time>2024-08-11T16:57:48+00:00</time>
      </trkpt>
      <trkpt lat="45.08257" lon="2.70338">
        <ele>1467</ele>
        <time>2024-08-11T16:57:51+00:00</time>
      </trkpt>
      <trkpt lat="45.08239" lon="2.70292">
        <ele>1458</ele>
        <time>2024-08-11T16:57:54+00:00</time>
      </trkpt>
      <trkpt lat="45.08206" lon="2.70258">
        <ele>1446</ele>
        <time>2024-08-11T16:57:57+00:00</time>
      </trkpt>
      <trkpt lat="45.08183" lon="2.70227">
        <ele>1438</ele>
        <time>2024-08-11T16:58:00+00:00</time>
      </trkpt>
      <trkpt lat="45.08163" lon="2.70222">
        <ele>1436</ele>
        <time>2024-08-11T16:58:03+00:00</time>
      </trkpt>
      <trkpt lat="45.08135" lon="2.7022">
        <ele>1434</ele>
        <time>2024-08-11T16:58:06+00:00</time>
      </trkpt>
      <trkpt lat="45.08092" lon="2.70217">
        <ele>1432</ele>
        <time>2024-08-11T16:58:09+00:00</time>
      </trkpt>
      <trkpt lat="45.08072" lon="2.70204">
        <ele>1431</ele>
        <time>2024-08-11T16:58:12+00:00</time>
      </trkpt>
      <trkpt lat="45.08026" lon="2.70197">
        <ele>1431</ele>
        <time>2024-08-11T16:58:15+00:00</time>
      </trkpt>
      <trkpt lat="45.07997" lon="2.702">
        <ele>1431</ele>
        <time>2024-08-11T16:58:18+00:00</time>
      </trkpt>
      <trkpt lat="45.07966" lon="2.70203">
        <ele>1429</ele>
        <time>2024-08-11T16:58:21+00:00</time>
      </trkpt>
      <trkpt lat="45.07943" lon="2.70205">
        <ele>1427</ele>
        <time>2024-08-11T16:58:24+00:00</time>
      </trkpt>
      <trkpt lat="45.07917" lon="2.70208">
        <ele>1427</ele>
        <time>2024-08-11T16:58:27+00:00</time>
      </trkpt>
      <trkpt lat="45.07896" lon="2.70214">
        <ele>1427</ele>
        <time>2024-08-11T16:58:30+00:00</time>
      </trkpt>
      <trkpt lat="45.07875" lon="2.7022">
        <ele>1430</ele>
        <time>2024-08-11T16:58:33+00:00</time>
      </trkpt>
      <trkpt lat="45.07838" lon="2.70233">
        <ele>1430</ele>
        <time>2024-08-11T16:58:36+00:00</time>
      </trkpt>
      <trkpt lat="45.07802" lon="2.70239">
        <ele>1430</ele>
        <time>2024-08-11T16:58:39+00:00</time>
      </trkpt>
      <trkpt lat="45.07767" lon="2.70248">
        <ele>1430</ele>
        <time>2024-08-11T16:58:42+00:00</time>
      </trkpt>
      <trkpt lat="45.07721" lon="2.70248">
        <ele>1429</ele>
        <time>2024-08-11T16:58:45+00:00</time>
      </trkpt>
      <trkpt lat="45.07682" lon="2.70245">
        <ele>1430</ele>
        <time>2024-08-11T16:58:48+00:00</time>
      </trkpt>
      <trkpt lat="45.07655" lon="2.70236">
        <ele>1429</ele>
        <time>2024-08-11T16:58:51+00:00</time>
      </trkpt>
      <trkpt lat="45.07627" lon="2.70222">
        <ele>1428</ele>
        <time>2024-08-11T16:58:54+00:00</time>
      </trkpt>
      <trkpt lat="45.07611" lon="2.70198">
        <ele>1424</ele>
        <time>2024-08-11T16:58:57+00:00</time>
      </trkpt>
      <trkpt lat="45.07606" lon="2.70163">
        <ele>1421</ele>
        <time>2024-08-11T16:59:00+00:00</time>
      </trkpt>
      <trkpt lat="45.07599" lon="2.7013">
        <ele>1418</ele>
        <time>2024-08-11T16:59:03+00:00</time>
      </trkpt>
      <trkpt lat="45.07581" lon="2.70091">
        <ele>1417</ele>
        <time>2024-08-11T16:59:06+00:00</time>
      </trkpt>
      <trkpt lat="45.07558" lon="2.70077">
        <ele>1408</ele>
        <time>2024-08-11T16:59:09+00:00</time>
      </trkpt>
      <trkpt lat="45.07536" lon="2.70063">
        <ele>1407</ele>
        <time>2024-08-11T16:59:12+00:00</time>
      </trkpt>
      <trkpt lat="45.0752" lon="2.70032">
        <ele>1403</ele>
        <time>2024-08-11T16:59:15+00:00</time>
      </trkpt>
      <trkpt lat="45.07516" lon="2.70005">
        <ele>1397</ele>
        <time>2024-08-11T16:59:18+00:00</time>
      </trkpt>
      <trkpt lat="45.0749" lon="2.69975">
        <ele>1394</ele>
        <time>2024-08-11T16:59:21+00:00</time>
      </trkpt>
      <trkpt lat="45.07475" lon="2.69957">
        <ele>1398</ele>
        <time>2024-08-11T16:59:24+00:00</time>
      </trkpt>
      <trkpt lat="45.0748" lon="2.69894">
        <ele>1402</ele>
        <time>2024-08-11T16:59:27+00:00</time>
      </trkpt>
      <trkpt lat="45.07472" lon="2.69848">
        <ele>1402</ele>
        <time>2024-08-11T16:59:30+00:00</time>
      </trkpt>
      <trkpt lat="45.07462" lon="2.69791">
        <ele>1406</ele>
        <time>2024-08-11T16:59:33+00:00</time>
      </trkpt>
      <trkpt lat="45.07454" lon="2.69752">
        <ele>1409</ele>
        <time>2024-08-11T16:59:36+00:00</time>
      </trkpt>
      <trkpt lat="45.07447" lon="2.69724">
        <ele>1409</ele>
        <time>2024-08-11T16:59:39+00:00</time>
      </trkpt>
      <trkpt lat="45.0742" lon="2.69722">
        <ele>1409</ele>
        <time>2024-08-11T16:59:42+00:00</time>
      </trkpt>
      <trkpt lat="45.07389" lon="2.69734">
        <ele>1401</ele>
        <time>2024-08-11T16:59:45+00:00</time>
      </trkpt>
      <trkpt lat="45.07369" lon="2.69742">
        <ele>1401</ele>
        <time>2024-08-11T16:59:48+00:00</time>
      </trkpt>
      <trkpt lat="45.07339" lon="2.6978">
        <ele>1397</ele>
        <time>2024-08-11T16:59:51+00:00</time>
      </trkpt>
      <trkpt lat="45.07321" lon="2.69806">
        <ele>1397</ele>
        <time>2024-08-11T16:59:54+00:00</time>
      </trkpt>
      <trkpt lat="45.07291" lon="2.69789">
        <ele>1397</ele>
        <time>2024-08-11T16:59:57+00:00</time>
      </trkpt>
      <trkpt lat="45.07253" lon="2.69762">
        <ele>1393</ele>
        <time>2024-08-11T17:00:00+00:00</time>
      </trkpt>
      <trkpt lat="45.07219" lon="2.69727">
        <ele>1395</ele>
        <time>2024-08-11T17:00:03+00:00</time>
      </trkpt>
      <trkpt lat="45.07179" lon="2.69659">
        <ele>1397</ele>
        <time>2024-08-11T17:00:06+00:00</time>
      </trkpt>
      <trkpt lat="45.07166" lon="2.69601">
        <ele>1398</ele>
        <time>2024-08-11T17:00:09+00:00</time>
      </trkpt>
      <trkpt lat="45.0716" lon="2.6955">
        <ele>1398</ele>
        <time>2024-08-11T17:00:12+00:00</time>
      </trkpt>
      <trkpt lat="45.07153" lon="2.69505">
        <ele>1398</ele>
        <time>2024-08-11T17:00:15+00:00</time>
      </trkpt>
      <trkpt lat="45.07094" lon="2.69536">
        <ele>1391</ele>
        <time>2024-08-11T17:00:18+00:00</time>
      </trkpt>
      <trkpt lat="45.07071" lon="2.69546">
        <ele>1390</ele>
        <time>2024-08-11T17:00:21+00:00</time>
      </trkpt>
      <trkpt lat="45.07047" lon="2.69557">
        <ele>1385</ele>
        <time>2024-08-11T17:00:24+00:00</time>
      </trkpt>
      <trkpt lat="45.07025" lon="2.69572">
        <ele>1382</ele>
        <time>2024-08-11T17:00:27+00:00</time>
      </trkpt>
      <trkpt lat="45.07004" lon="2.69595">
        <ele>1380</ele>
        <time>2024-08-11T17:00:30+00:00</time>
      </trkpt>
      <trkpt lat="45.06977" lon="2.69624">
        <ele>1376</ele>
        <time>2024-08-11T17:00:33+00:00</time>
      </trkpt>
      <trkpt lat="45.06955" lon="2.69646">
        <ele>1371</ele>
        <time>2024-08-11T17:00:36+00:00</time>
      </trkpt>
      <trkpt lat="45.06925" lon="2.69677">
        <ele>1366</ele>
        <time>2024-08-11T17:00:39+00:00</time>
      </trkpt>
      <trkpt lat="45.0688" lon="2.69695">
        <ele>1362</ele>
        <time>2024-08-11T17:00:42+00:00</time>
      </trkpt>
      <trkpt lat="45.06857" lon="2.69706">
        <ele>1362</ele>
        <time>2024-08-11T17:00:45+00:00</time>
      </trkpt>
      <trkpt lat="45.06857" lon="2.6967">
        <ele>1360</ele>
        <time>2024-08-11T17:00:48+00:00</time>
      </trkpt>
      <trkpt lat="45.06857" lon="2.69643">
        <ele>1359</ele>
        <time>2024-08-11T17:00:51+00:00</time>
      </trkpt>
      <trkpt lat="45.06855" lon="2.6961">
        <ele>1355</ele>
        <time>2024-08-11T17:00:54+00:00</time>
      </trkpt>
      <trkpt lat="45.06836" lon="2.69568">
        <ele>1355</ele>
        <time>2024-08-11T17:00:57+00:00</time>
      </trkpt>
      <trkpt lat="45.06825" lon="2.69534">
        <ele>1354</ele>
        <time>2024-08-11T17:01:00+00:00</time>
      </trkpt>
      <trkpt lat="45.06812" lon="2.69492">
        <ele>1352</ele>
        <time>2024-08-11T17:01:03+00:00</time>
      </trkpt>
      <trkpt lat="45.06787" lon="2.69443">
        <ele>1350</ele>
        <time>2024-08-11T17:01:06+00:00</time>
      </trkpt>
      <trkpt lat="45.06765" lon="2.69413">
        <ele>1342</ele>
        <time>2024-08-11T17:01:09+00:00</time>
      </trkpt>
      <trkpt lat="45.06759" lon="2.69371">
        <ele>1342</ele>
        <time>2024-08-11T17:01:12+00:00</time>
      </trkpt>
      <trkpt lat="45.06753" lon="2.6934">
        <ele>1334</ele>
        <time>2024-08-11T17:01:15+00:00</time>
      </trkpt>
      <trkpt lat="45.06742" lon="2.6931">
        <ele>1331</ele>
        <time>2024-08-11T17:01:18+00:00</time>
      </trkpt>
      <trkpt lat="45.0673" lon="2.69279">
        <ele>1326</ele>
        <time>2024-08-11T17:01:21+00:00</time>
      </trkpt>
      <trkpt lat="45.06707" lon="2.69239">
        <ele>1323</ele>
        <time>2024-08-11T17:01:24+00:00</time>
      </trkpt>
      <trkpt lat="45.06684" lon="2.69223">
        <ele>1321</ele>
        <time>2024-08-11T17:01:27+00:00</time>
      </trkpt>
      <trkpt lat="45.06661" lon="2.692">
        <ele>1317</ele>
        <time>2024-08-11T17:01:30+00:00</time>
      </trkpt>
      <trkpt lat="45.0663" lon="2.6918">
        <ele>1317</ele>
        <time>2024-08-11T17:01:33+00:00</time>
      </trkpt>
      <trkpt lat="45.06608" lon="2.69153">
        <ele>1317</ele>
        <time>2024-08-11T17:01:36+00:00</time>
      </trkpt>
      <trkpt lat="45.06626" lon="2.69104">
        <ele>1323</ele>
        <time>2024-08-11T17:01:39+00:00</time>
      </trkpt>
      <trkpt lat="45.06626" lon="2.69053">
        <ele>1324</ele>
        <time>2024-08-11T17:01:42+00:00</time>
      </trkpt>
      <trkpt lat="45.06629" lon="2.69024">
        <ele>1322</ele>
        <time>2024-08-11T17:01:45+00:00</time>
      </trkpt>
      <trkpt lat="45.06628" lon="2.68992">
        <ele>1321</ele>
        <time>2024-08-11T17:01:48+00:00</time>
      </trkpt>
      <trkpt lat="45.06617" lon="2.68962">
        <ele>1319</ele>
        <time>2024-08-11T17:01:51+00:00</time>
      </trkpt>
      <trkpt lat="45.06607" lon="2.68931">
        <ele>1315</ele>
        <time>2024-08-11T17:01:54+00:00</time>
      </trkpt>
      <trkpt lat="45.06586" lon="2.68908">
        <ele>1310</ele>
        <time>2024-08-11T17:01:57+00:00</time>
      </trkpt>
      <trkpt lat="45.06563" lon="2.68892">
        <ele>1310</ele>
        <time>2024-08-11T17:02:00+00:00</time>
      </trkpt>
      <trkpt lat="45.06538" lon="2.68886">
        <ele>1308</ele>
        <time>2024-08-11T17:02:03+00:00</time>
      </trkpt>
      <trkpt lat="45.06511" lon="2.68868">
        <ele>1308</ele>
        <time>2024-08-11T17:02:06+00:00</time>
      </trkpt>
      <trkpt lat="45.06514" lon="2.68812">
        <ele>1306</ele>
        <time>2024-08-11T17:02:09+00:00</time>
      </trkpt>
      <trkpt lat="45.06525" lon="2.68758">
        <ele>1304</ele>
        <time>2024-08-11T17:02:12+00:00</time>
      </trkpt>
      <trkpt lat="45.06523" lon="2.68722">
        <ele>1300</ele>
        <time>2024-08-11T17:02:15+00:00</time>
      </trkpt>
      <trkpt lat="45.06526" lon="2.68669">
        <ele>1301</ele>
        <time>2024-08-11T17:02:18+00:00</time>
      </trkpt>
      <trkpt lat="45.06538" lon="2.68641">
        <ele>1300</ele>
        <time>2024-08-11T17:02:21+00:00</time>
      </trkpt>
      <trkpt lat="45.06569" lon="2.68601">
        <ele>1300</ele>
        <time>2024-08-11T17:02:24+00:00</time>
      </trkpt>
      <trkpt lat="45.06579" lon="2.68571">
        <ele>1295</ele>
        <time>2024-08-11T17:02:27+00:00</time>
      </trkpt>
      <trkpt lat="45.06569" lon="2.68515">
        <ele>1294</ele>
        <time>2024-08-11T17:02:30+00:00</time>
      </trkpt>
      <trkpt lat="45.06559" lon="2.68459">
        <ele>1289</ele>
        <time>2024-08-11T17:02:33+00:00</time>
      </trkpt>
      <trkpt lat="45.06554" lon="2.68426">
        <ele>1283</ele>
        <time>2024-08-11T17:02:36+00:00</time>
      </trkpt>
      <trkpt lat="45.06536" lon="2.68374">
        <ele>1282</ele>
        <time>2024-08-11T17:02:39+00:00</time>
      </trkpt>
      <trkpt lat="45.06523" lon="2.68329">
        <ele>1283</ele>
        <time>2024-08-11T17:02:42+00:00</time>
      </trkpt>
      <trkpt lat="45.06518" lon="2.68266">
        <ele>1280</ele>
        <time>2024-08-11T17:02:45+00:00</time>
      </trkpt>
      <trkpt lat="45.06522" lon="2.68231">
        <ele>1280</ele>
        <time>2024-08-11T17:02:48+00:00</time>
      </trkpt>
      <trkpt lat="45.06527" lon="2.68192">
        <ele>1280</ele>
        <time>2024-08-11T17:02:51+00:00</time>
      </trkpt>
      <trkpt lat="45.06541" lon="2.6814">
        <ele>1277</ele>
        <time>2024-08-11T17:02:54+00:00</time>
      </trkpt>
      <trkpt lat="45.06539" lon="2.68073">
        <ele>1275</ele>
        <time>2024-08-11T17:02:57+00:00</time>
      </trkpt>
      <trkpt lat="45.06551" lon="2.68013">
        <ele>1270</ele>
        <time>2024-08-11T17:03:00+00:00</time>
      </trkpt>
      <trkpt lat="45.06549" lon="2.67982">
        <ele>1265</ele>
        <time>2024-08-11T17:03:03+00:00</time>
      </trkpt>
      <trkpt lat="45.06571" lon="2.6794">
        <ele>1264</ele>
        <time>2024-08-11T17:03:06+00:00</time>
      </trkpt>
      <trkpt lat="45.06576" lon="2.67913">
        <ele>1263</ele>
        <time>2024-08-11T17:03:09+00:00</time>
      </trkpt>
      <trkpt lat="45.06591" lon="2.67874">
        <ele>1257</ele>
        <time>2024-08-11T17:03:12+00:00</time>
      </trkpt>
      <trkpt lat="45.06619" lon="2.67862">
        <ele>1253</ele>
        <time>2024-08-11T17:03:15+00:00</time>
      </trkpt>
      <trkpt lat="45.0663" lon="2.67902">
        <ele>1250</ele>
        <time>2024-08-11T17:03:18+00:00</time>
      </trkpt>
      <trkpt lat="45.06638" lon="2.67945">
        <ele>1246</ele>
        <time>2024-08-11T17:03:21+00:00</time>
      </trkpt>
      <trkpt lat="45.0664" lon="2.67993">
        <ele>1241</ele>
        <time>2024-08-11T17:03:24+00:00</time>
      </trkpt>
      <trkpt lat="45.06618" lon="2.6803">
        <ele>1239</ele>
        <time>2024-08-11T17:03:27+00:00</time>
      </trkpt>
      <trkpt lat="45.06653" lon="2.68033">
        <ele>1234</ele>
        <time>2024-08-11T17:03:30+00:00</time>
      </trkpt>
      <trkpt lat="45.06668" lon="2.68014">
        <ele>1234</ele>
        <time>2024-08-11T17:03:33+00:00</time>
      </trkpt>
      <trkpt lat="45.06684" lon="2.67996">
        <ele>1230</ele>
        <time>2024-08-11T17:03:36+00:00</time>
      </trkpt>
      <trkpt lat="45.06702" lon="2.67979">
        <ele>1227</ele>
        <time>2024-08-11T17:03:39+00:00</time>
      </trkpt>
      <trkpt lat="45.06721" lon="2.67936">
        <ele>1223</ele>
        <time>2024-08-11T17:03:42+00:00</time>
      </trkpt>
      <trkpt lat="45.06748" lon="2.67943">
        <ele>1218</ele>
        <time>2024-08-11T17:03:45+00:00</time>
      </trkpt>
      <trkpt lat="45.06746" lon="2.67981">
        <ele>1217</ele>
        <time>2024-08-11T17:03:48+00:00</time>
      </trkpt>
      <trkpt lat="45.06751" lon="2.68011">
        <ele>1214</ele>
        <time>2024-08-11T17:03:51+00:00</time>
      </trkpt>
      <trkpt lat="45.06767" lon="2.68031">
        <ele>1211</ele>
        <time>2024-08-11T17:03:54+00:00</time>
      </trkpt>
      <trkpt lat="45.0678" lon="2.68067">
        <ele>1206</ele>
        <time>2024-08-11T17:03:57+00:00</time>
      </trkpt>
      <trkpt lat="45.06798" lon="2.68073">
        <ele>1204</ele>
        <time>2024-08-11T17:04:00+00:00</time>
      </trkpt>
      <trkpt lat="45.06813" lon="2.68105">
        <ele>1202</ele>
        <time>2024-08-11T17:04:03+00:00</time>
      </trkpt>
      <trkpt lat="45.06832" lon="2.68125">
        <ele>1200</ele>
        <time>2024-08-11T17:04:06+00:00</time>
      </trkpt>
      <trkpt lat="45.06853" lon="2.68114">
        <ele>1196</ele>
        <time>2024-08-11T17:04:09+00:00</time>
      </trkpt>
      <trkpt lat="45.06869" lon="2.68089">
        <ele>1196</ele>
        <time>2024-08-11T17:04:12+00:00</time>
      </trkpt>
      <trkpt lat="45.06887" lon="2.68041">
        <ele>1189</ele>
        <time>2024-08-11T17:04:15+00:00</time>
      </trkpt>
      <trkpt lat="45.06908" lon="2.67997">
        <ele>1183</ele>
        <time>2024-08-11T17:04:18+00:00</time>
      </trkpt>
      <trkpt lat="45.06938" lon="2.67979">
        <ele>1178</ele>
        <time>2024-08-11T17:04:21+00:00</time>
      </trkpt>
      <trkpt lat="45.06939" lon="2.6795">
        <ele>1172</ele>
        <time>2024-08-11T17:04:24+00:00</time>
      </trkpt>
      <trkpt lat="45.06965" lon="2.67937">
        <ele>1167</ele>
        <time>2024-08-11T17:04:27+00:00</time>
      </trkpt>
      <trkpt lat="45.06986" lon="2.67919">
        <ele>1161</ele>
        <time>2024-08-11T17:04:30+00:00</time>
      </trkpt>
      <trkpt lat="45.06993" lon="2.67857">
        <ele>1154</ele>
        <time>2024-08-11T17:04:33+00:00</time>
      </trkpt>
      <trkpt lat="45.06998" lon="2.67806">
        <ele>1150</ele>
        <time>2024-08-11T17:04:36+00:00</time>
      </trkpt>
      <trkpt lat="45.07013" lon="2.67782">
        <ele>1141</ele>
        <time>2024-08-11T17:04:39+00:00</time>
      </trkpt>
      <trkpt lat="45.07016" lon="2.67755">
        <ele>1141</ele>
        <time>2024-08-11T17:04:42+00:00</time>
      </trkpt>
      <trkpt lat="45.07018" lon="2.67705">
        <ele>1135</ele>
        <time>2024-08-11T17:04:45+00:00</time>
      </trkpt>
      <trkpt lat="45.07042" lon="2.67686">
        <ele>1130</ele>
        <time>2024-08-11T17:04:48+00:00</time>
      </trkpt>
      <trkpt lat="45.07045" lon="2.6765">
        <ele>1126</ele>
        <time>2024-08-11T17:04:51+00:00</time>
      </trkpt>
      <trkpt lat="45.07079" lon="2.67639">
        <ele>1123</ele>
        <time>2024-08-11T17:04:54+00:00</time>
      </trkpt>
      <trkpt lat="45.07104" lon="2.67605">
        <ele>1120</ele>
        <time>2024-08-11T17:04:57+00:00</time>
      </trkpt>
      <trkpt lat="45.07116" lon="2.67578">
        <ele>1117</ele>
        <time>2024-08-11T17:05:00+00:00</time>
      </trkpt>
      <trkpt lat="45.07129" lon="2.67552">
        <ele>1111</ele>
        <time>2024-08-11T17:05:03+00:00</time>
      </trkpt>
      <trkpt lat="45.07145" lon="2.67512">
        <ele>1107</ele>
        <time>2024-08-11T17:05:06+00:00</time>
      </trkpt>
      <trkpt lat="45.07158" lon="2.6747">
        <ele>1103</ele>
        <time>2024-08-11T17:05:09+00:00</time>
      </trkpt>
      <trkpt lat="45.07162" lon="2.67436">
        <ele>1101</ele>
        <time>2024-08-11T17:05:12+00:00</time>
      </trkpt>
      <trkpt lat="45.07173" lon="2.67385">
        <ele>1100</ele>
        <time>2024-08-11T17:05:15+00:00</time>
      </trkpt>
      <trkpt lat="45.07183" lon="2.67352">
        <ele>1096</ele>
        <time>2024-08-11T17:05:18+00:00</time>
      </trkpt>
      <trkpt lat="45.07191" lon="2.67326">
        <ele>1094</ele>
        <time>2024-08-11T17:05:21+00:00</time>
      </trkpt>
      <trkpt lat="45.07202" lon="2.67285">
        <ele>1093</ele>
        <time>2024-08-11T17:05:24+00:00</time>
      </trkpt>
      <trkpt lat="45.07212" lon="2.67255">
        <ele>1086</ele>
        <time>2024-08-11T17:05:27+00:00</time>
      </trkpt>
      <trkpt lat="45.07218" lon="2.6722">
        <ele>1082</ele>
        <time>2024-08-11T17:05:30+00:00</time>
      </trkpt>
      <trkpt lat="45.0722" lon="2.67189">
        <ele>1077</ele>
        <time>2024-08-11T17:05:33+00:00</time>
      </trkpt>
      <trkpt lat="45.07224" lon="2.67153">
        <ele>1071</ele>
        <time>2024-08-11T17:05:36+00:00</time>
      </trkpt>
      <trkpt lat="45.07202" lon="2.67135">
        <ele>1067</ele>
        <time>2024-08-11T17:05:39+00:00</time>
      </trkpt>
      <trkpt lat="45.07222" lon="2.67107">
        <ele>1062</ele>
        <time>2024-08-11T17:05:42+00:00</time>
      </trkpt>
      <trkpt lat="45.07254" lon="2.67113">
        <ele>1056</ele>
        <time>2024-08-11T17:05:45+00:00</time>
      </trkpt>
      <trkpt lat="45.07277" lon="2.67122">
        <ele>1052</ele>
        <time>2024-08-11T17:05:48+00:00</time>
      </trkpt>
      <trkpt lat="45.07286" lon="2.6707">
        <ele>1046</ele>
        <time>2024-08-11T17:05:51+00:00</time>
      </trkpt>
      <trkpt lat="45.07292" lon="2.6704">
        <ele>1043</ele>
        <time>2024-08-11T17:05:54+00:00</time>
      </trkpt>
      <trkpt lat="45.07302" lon="2.67">
        <ele>1039</ele>
        <time>2024-08-11T17:05:57+00:00</time>
      </trkpt>
      <trkpt lat="45.07313" lon="2.6696">
        <ele>1037</ele>
        <time>2024-08-11T17:06:00+00:00</time>
      </trkpt>
      <trkpt lat="45.07325" lon="2.66917">
        <ele>1037</ele>
        <time>2024-08-11T17:06:03+00:00</time>
      </trkpt>
      <trkpt lat="45.07315" lon="2.66888">
        <ele>1037</ele>
        <time>2024-08-11T17:06:06+00:00</time>
      </trkpt>
      <trkpt lat="45.07294" lon="2.66877">
        <ele>1035</ele>
        <time>2024-08-11T17:06:09+00:00</time>
      </trkpt>
      <trkpt lat="45.07268" lon="2.66837">
        <ele>1029</ele>
        <time>2024-08-11T17:06:12+00:00</time>
      </trkpt>
      <trkpt lat="45.07265" lon="2.66793">
        <ele>1028</ele>
        <time>2024-08-11T17:06:15+00:00</time>
      </trkpt>
      <trkpt lat="45.07246" lon="2.66768">
        <ele>1022</ele>
        <time>2024-08-11T17:06:18+00:00</time>
      </trkpt>
      <trkpt lat="45.07223" lon="2.66741">
        <ele>1015</ele>
        <time>2024-08-11T17:06:21+00:00</time>
      </trkpt>
      <trkpt lat="45.07223" lon="2.66698">
        <ele>1005</ele>
        <time>2024-08-11T17:06:24+00:00</time>
      </trkpt>
      <trkpt lat="45.07211" lon="2.66654">
        <ele>1001</ele>
        <time>2024-08-11T17:06:27+00:00</time>
      </trkpt>
      <trkpt lat="45.07194" lon="2.66629">
        <ele>997</ele>
        <time>2024-08-11T17:06:30+00:00</time>
      </trkpt>
      <trkpt lat="45.07188" lon="2.66606">
        <ele>993</ele>
        <time>2024-08-11T17:06:33+00:00</time>
      </trkpt>
      <trkpt lat="45.07199" lon="2.66565">
        <ele>987</ele>
        <time>2024-08-11T17:06:36+00:00</time>
      </trkpt>
      <trkpt lat="45.07193" lon="2.6653">
        <ele>984</ele>
        <time>2024-08-11T17:06:39+00:00</time>
      </trkpt>
      <trkpt lat="45.07168" lon="2.66485">
        <ele>981</ele>
        <time>2024-08-11T17:06:42+00:00</time>
      </trkpt>
      <trkpt lat="45.07153" lon="2.66462">
        <ele>977</ele>
        <time>2024-08-11T17:06:45+00:00</time>
      </trkpt>
      <trkpt lat="45.07136" lon="2.66436">
        <ele>971</ele>
        <time>2024-08-11T17:06:48+00:00</time>
      </trkpt>
      <trkpt lat="45.0711" lon="2.66405">
        <ele>963</ele>
        <time>2024-08-11T17:06:51+00:00</time>
      </trkpt>
      <trkpt lat="45.07096" lon="2.66387">
        <ele>962</ele>
        <time>2024-08-11T17:06:54+00:00</time>
      </trkpt>
      <trkpt lat="45.07078" lon="2.66367">
        <ele>960</ele>
        <time>2024-08-11T17:06:57+00:00</time>
      </trkpt>
      <trkpt lat="45.07058" lon="2.66306">
        <ele>950</ele>
        <time>2024-08-11T17:07:00+00:00</time>
      </trkpt>
      <trkpt lat="45.07035" lon="2.66267">
        <ele>942</ele>
        <time>2024-08-11T17:07:03+00:00</time>
      </trkpt>
      <trkpt lat="45.07015" lon="2.6622">
        <ele>942</ele>
        <time>2024-08-11T17:07:06+00:00</time>
      </trkpt>
      <trkpt lat="45.07009" lon="2.66182">
        <ele>942</ele>
        <time>2024-08-11T17:07:09+00:00</time>
      </trkpt>
      <trkpt lat="45.07014" lon="2.66156">
        <ele>937</ele>
        <time>2024-08-11T17:07:12+00:00</time>
      </trkpt>
      <trkpt lat="45.07031" lon="2.66135">
        <ele>935</ele>
        <time>2024-08-11T17:07:15+00:00</time>
      </trkpt>
      <trkpt lat="45.07046" lon="2.66117">
        <ele>933</ele>
        <time>2024-08-11T17:07:18+00:00</time>
      </trkpt>
      <trkpt lat="45.07027" lon="2.66099">
        <ele>932</ele>
        <time>2024-08-11T17:07:21+00:00</time>
      </trkpt>
      <trkpt lat="45.07005" lon="2.66055">
        <ele>931</ele>
        <time>2024-08-11T17:07:24+00:00</time>
      </trkpt>
      <trkpt lat="45.07001" lon="2.66022">
        <ele>930</ele>
        <time>2024-08-11T17:07:27+00:00</time>
      </trkpt>
      <trkpt lat="45.06985" lon="2.65986">
        <ele>930</ele>
        <time>2024-08-11T17:07:30+00:00</time>
      </trkpt>
      <trkpt lat="45.06969" lon="2.65944">
        <ele>930</ele>
        <time>2024-08-11T17:07:33+00:00</time>
      </trkpt>
      <trkpt lat="45.0696" lon="2.65908">
        <ele>929</ele>
        <time>2024-08-11T17:07:36+00:00</time>
      </trkpt>
      <trkpt lat="45.06948" lon="2.65858">
        <ele>929</ele>
        <time>2024-08-11T17:07:39+00:00</time>
      </trkpt>
      <trkpt lat="45.06928" lon="2.65819">
        <ele>929</ele>
        <time>2024-08-11T17:07:42+00:00</time>
      </trkpt>
      <trkpt lat="45.06916" lon="2.65775">
        <ele>925</ele>
        <time>2024-08-11T17:07:45+00:00</time>
      </trkpt>
      <trkpt lat="45.069" lon="2.65745">
        <ele>923</ele>
        <time>2024-08-11T17:07:48+00:00</time>
      </trkpt>
      <trkpt lat="45.06946" lon="2.65773">
        <ele>922</ele>
        <time>2024-08-11T17:07:51+00:00</time>
      </trkpt>
      <trkpt lat="45.06968" lon="2.65762">
        <ele>922</ele>
        <time>2024-08-11T17:07:54+00:00</time>
      </trkpt>
      <trkpt lat="45.06988" lon="2.65741">
        <ele>922</ele>
        <time>2024-08-11T17:07:57+00:00</time>
      </trkpt>
      <trkpt lat="45.06994" lon="2.65708">
        <ele>922</ele>
        <time>2024-08-11T17:08:00+00:00</time>
      </trkpt>
      <trkpt lat="45.06988" lon="2.65708">
        <ele>921</ele>
        <time>2024-08-11T17:08:03+00:00</time>
      </trkpt>
    </trkseg>
  </trk>
</gpx>